createdAt,value
2018-07-14T18:36:23.695Z,29.39
2018-07-14T18:38:50.877Z,29.18
2018-07-14T18:41:17.602Z,28.92
2018-07-14T18:43:48.122Z,28.62
2018-07-14T18:46:15.723Z,28.88
2018-07-14T18:51:28.520Z,29.09
2018-07-14T18:56:05.073Z,28.50
2018-07-14T18:58:37.713Z,28.16
2018-07-14T19:01:04.565Z,27.71
2018-07-14T19:03:36.583Z,27.43
2018-07-14T19:06:04.661Z,27.37
2018-07-14T19:08:32.308Z,27.34
2018-07-14T19:11:00.593Z,26.95
2018-07-14T19:15:55.556Z,26.58
2018-07-14T19:20:19.568Z,26.07
2018-07-14T19:22:46.283Z,25.81
2018-07-14T19:25:13.981Z,25.51
2018-07-14T19:27:41.954Z,25.25
2018-07-14T19:30:08.492Z,24.54
2018-07-14T19:32:36.062Z,23.90
2018-07-14T19:35:03.766Z,23.47
2018-07-14T19:37:30.240Z,23.12
2018-07-14T19:39:56.826Z,22.90
2018-07-14T19:42:24.348Z,22.68
2018-07-14T19:44:51.265Z,22.48
2018-07-14T19:47:17.921Z,22.31
2018-07-14T19:49:45.696Z,22.14
2018-07-14T19:52:12.214Z,22.01
2018-07-14T19:54:38.689Z,21.85
2018-07-14T19:57:06.598Z,21.76
2018-07-14T19:59:35.081Z,21.67
2018-07-14T20:02:01.678Z,21.55
2018-07-14T20:04:29.200Z,21.48
2018-07-14T20:06:55.774Z,21.36
2018-07-14T20:09:22.261Z,21.28
2018-07-14T20:11:49.286Z,21.22
2018-07-14T20:14:15.782Z,21.12
2018-07-14T20:16:42.311Z,21.04
2018-07-14T20:19:08.889Z,20.95
2018-07-14T20:21:35.341Z,20.87
2018-07-14T20:24:02.253Z,20.79
2018-07-14T20:26:28.746Z,20.72
2018-07-14T20:28:59.487Z,20.66
2018-07-14T20:31:26.482Z,20.57
2018-07-14T20:33:52.973Z,20.48
2018-07-14T20:36:19.617Z,20.43
2018-07-14T20:38:47.162Z,20.35
2018-07-14T20:41:13.815Z,20.30
2018-07-14T20:43:41.022Z,20.20
2018-07-14T20:46:08.156Z,20.12
2018-07-14T20:48:35.830Z,20.03
2018-07-14T20:51:02.468Z,19.97
2018-07-14T20:53:30.548Z,19.85
2018-07-14T20:55:58.642Z,19.72
2018-07-14T20:58:26.269Z,19.65
2018-07-14T21:00:55.170Z,19.57
2018-07-14T21:03:22.308Z,19.45
2018-07-14T21:05:48.832Z,19.34
2018-07-14T21:08:16.533Z,19.25
2018-07-14T21:10:43.554Z,19.14
2018-07-14T21:13:10.054Z,19.03
2018-07-14T21:15:38.657Z,18.93
2018-07-14T21:18:05.181Z,18.86
2018-07-14T21:20:31.657Z,18.78
2018-07-14T21:22:58.537Z,18.75
2018-07-14T21:25:25.681Z,18.75
2018-07-14T21:27:52.589Z,18.68
2018-07-14T21:30:19.517Z,18.64
2018-07-14T21:32:46.156Z,18.55
2018-07-14T21:35:13.512Z,18.49
2018-07-14T21:37:40.467Z,18.45
2018-07-14T21:40:07.158Z,18.39
2018-07-14T21:42:35.369Z,18.37
2018-07-14T21:45:03.757Z,18.34
2018-07-14T21:47:31.717Z,18.32
2018-07-14T21:49:58.376Z,18.30
2018-07-14T21:52:25.170Z,18.27
2018-07-14T21:54:51.614Z,18.21
2018-07-14T21:57:18.100Z,18.12
2018-07-14T21:59:44.853Z,18.02
2018-07-14T22:02:12.680Z,17.91
2018-07-14T22:04:40.909Z,17.88
2018-07-14T22:07:07.859Z,17.82
2018-07-14T22:09:34.301Z,17.72
2018-07-14T22:12:01.794Z,17.64
2018-07-14T22:14:28.698Z,17.61
2018-07-14T22:16:55.457Z,17.52
2018-07-14T22:19:21.982Z,17.51
2018-07-14T22:21:49.925Z,17.49
2018-07-14T22:24:16.417Z,17.44
2018-07-14T22:26:43.797Z,17.40
2018-07-14T22:29:11.259Z,17.37
2018-07-14T22:31:37.748Z,17.31
2018-07-14T22:34:05.060Z,17.22
2018-07-14T22:36:32.733Z,17.13
2018-07-14T22:38:59.235Z,17.09
2018-07-14T22:41:26.348Z,17.03
2018-07-14T22:43:53.334Z,16.96
2018-07-14T22:46:20.232Z,16.90
2018-07-14T22:48:46.757Z,16.88
2018-07-14T22:51:14.508Z,16.79
2018-07-14T22:53:41.572Z,16.70
2018-07-14T22:56:09.565Z,16.60
2018-07-14T22:58:36.440Z,16.55
2018-07-14T23:01:02.937Z,16.48
2018-07-14T23:03:29.430Z,16.44
2018-07-14T23:05:56.350Z,16.39
2018-07-14T23:08:22.851Z,16.34
2018-07-14T23:10:49.311Z,16.31
2018-07-14T23:13:16.261Z,16.28
2018-07-14T23:15:42.717Z,16.26
2018-07-14T23:18:09.224Z,16.25
2018-07-14T23:20:37.686Z,16.24
2018-07-14T23:23:04.164Z,16.20
2018-07-14T23:25:30.658Z,16.18
2018-07-14T23:27:59.129Z,16.13
2018-07-14T23:30:25.610Z,16.13
2018-07-14T23:32:52.106Z,16.10
2018-07-14T23:35:19.003Z,16.09
2018-07-14T23:37:45.525Z,16.10
2018-07-14T23:40:12.026Z,16.07
2018-07-14T23:42:39.011Z,16.07
2018-07-14T23:45:06.113Z,16.04
2018-07-14T23:47:32.613Z,16.01
2018-07-14T23:49:59.469Z,16.00
2018-07-14T23:52:25.965Z,15.95
2018-07-14T23:54:52.421Z,15.91
2018-07-14T23:57:19.335Z,15.89
2018-07-14T23:59:45.795Z,15.88
